Time;durP1;ratioP1;P1;durP2;ratioP2;P2;SDS_P1;SDS_P2;PMS_P1;PMS_P2;Temp;Humidity;BMP_temperature;BMP_pressure;BME280_temperature;BME280_humidity;BME280_pressure;Samples;Min_cycle;Max_cycle;Signal;HPM_P1;HPM_P2
2022/11/13 00:02:10;;;;;;;16.00;13.27;;;5.10;99.90;;;;;;5047340;28;20406;-71
2022/11/13 00:04:35;;;;;;;14.35;11.98;;;5.10;99.90;;;;;;5047880;28;20081;-71
2022/11/13 00:07:01;;;;;;;15.75;12.30;;;5.00;99.90;;;;;;5048829;28;20037;-71
2022/11/13 00:09:27;;;;;;;15.27;11.07;;;4.90;99.90;;;;;;5049666;28;20060;-71
2022/11/13 00:11:52;;;;;;;16.10;12.00;;;4.80;99.90;;;;;;5081685;28;20044;-71
2022/11/13 00:14:18;;;;;;;17.83;11.57;;;4.80;99.90;;;;;;5046987;28;20047;-71
2022/11/13 00:16:44;;;;;;;13.95;11.98;;;4.70;99.90;;;;;;5049224;28;20052;-71
2022/11/13 00:19:09;;;;;;;13.48;12.07;;;4.80;99.90;;;;;;5050339;28;20076;-71
2022/11/13 00:21:35;;;;;;;15.57;13.43;;;4.80;99.90;;;;;;5049631;28;20475;-71
2022/11/13 00:24:01;;;;;;;17.95;14.73;;;4.90;99.90;;;;;;5047629;28;20508;-71
2022/11/13 00:26:29;;;;;;;21.50;16.27;;;5.00;99.90;;;;;;5046205;28;20078;-71
2022/11/13 00:29:00;;;;;;;18.25;15.55;;;5.10;99.90;;;;;;5048926;28;20081;-71
2022/11/13 00:31:27;;;;;;;18.30;14.10;;;5.10;99.90;;;;;;5048755;28;20113;-71
2022/11/13 00:33:53;;;;;;;17.20;15.40;;;5.20;99.90;;;;;;5049383;28;20058;-71
2022/11/13 00:36:24;;;;;;;17.33;15.30;;;5.20;99.90;;;;;;5053070;28;20056;-71
2022/11/13 00:38:50;;;;;;;16.65;14.80;;;5.20;99.90;;;;;;5082093;28;20371;-71
2022/11/13 00:41:16;;;;;;;18.02;15.23;;;5.20;99.90;;;;;;5054941;28;20577;-71
2022/11/13 00:43:42;;;;;;;18.85;15.20;;;5.20;99.90;;;;;;5046497;28;20073;-71
2022/11/13 00:46:08;;;;;;;17.80;15.40;;;5.20;99.90;;;;;;5056737;28;20037;-71
2022/11/13 00:48:34;;;;;;;16.52;14.82;;;5.20;99.90;;;;;;5052200;28;20049;-71
2022/11/13 00:51:00;;;;;;;15.75;13.35;;;5.20;99.90;;;;;;5054173;28;20099;-71
2022/11/13 00:53:26;;;;;;;16.13;13.63;;;5.20;99.90;;;;;;5046120;28;20103;-71
2022/11/13 00:55:51;;;;;;;15.57;14.00;;;5.10;99.90;;;;;;5057436;28;20052;-71
2022/11/13 00:58:17;;;;;;;15.95;13.93;;;5.10;99.90;;;;;;5053335;28;20041;-71
2022/11/13 01:00:45;;;;;;;17.13;14.07;;;5.00;99.90;;;;;;5057339;28;20056;-71
2022/11/13 01:03:11;;;;;;;17.25;15.10;;;5.10;99.90;;;;;;5051837;28;20033;-71
2022/11/13 01:05:38;;;;;;;19.20;16.08;;;5.10;99.90;;;;;;5049169;28;20055;-71
2022/11/13 01:08:06;;;;;;;23.45;17.77;;;5.10;99.90;;;;;;5051756;28;20064;-71
2022/11/13 01:10:33;;;;;;;25.90;20.15;;;5.10;99.90;;;;;;5058786;28;20076;-71
2022/11/13 01:12:59;;;;;;;24.83;19.77;;;5.20;99.90;;;;;;5053342;28;20076;-71
2022/11/13 01:15:25;;;;;;;27.88;21.58;;;5.20;99.90;;;;;;5036470;28;20052;-71
2022/11/13 01:17:53;;;;;;;29.42;21.60;;;5.20;99.90;;;;;;5057168;28;20088;-71
2022/11/13 01:20:20;;;;;;;30.73;23.05;;;5.30;99.90;;;;;;5057574;28;20115;-71
2022/11/13 01:22:46;;;;;;;24.58;19.52;;;5.40;99.90;;;;;;5054259;28;20449;-71
2022/11/13 01:25:11;;;;;;;23.83;18.25;;;5.40;99.90;;;;;;5059767;28;20096;-71
2022/11/13 01:27:37;;;;;;;20.23;17.58;;;5.40;99.90;;;;;;5054505;28;20524;-71
2022/11/13 01:30:04;;;;;;;24.00;20.65;;;5.30;99.90;;;;;;5058446;28;20053;-71
2022/11/13 01:32:29;;;;;;;30.05;21.67;;;5.30;99.90;;;;;;5046262;28;20054;-71
2022/11/13 01:34:55;;;;;;;31.17;23.30;;;5.30;99.90;;;;;;5058881;28;20460;-71
2022/11/13 01:37:21;;;;;;;29.92;22.67;;;5.30;99.90;;;;;;5054236;28;20041;-71
2022/11/13 01:39:47;;;;;;;27.30;22.13;;;5.50;99.90;;;;;;5059786;28;20049;-71
2022/11/13 01:42:12;;;;;;;29.38;22.38;;;5.50;99.90;;;;;;5086149;28;20398;-71
2022/11/13 01:44:55;;;;;;;28.08;21.35;;;5.50;99.90;;;;;;5052969;28;20388;-71
2022/11/13 01:47:21;;;;;;;30.40;22.35;;;5.60;99.90;;;;;;5088204;28;20049;-71
2022/11/13 01:49:50;;;;;;;28.33;22.35;;;5.60;99.90;;;;;;5060410;28;20043;-71
2022/11/13 01:52:25;;;;;;;28.88;22.00;;;5.60;99.90;;;;;;5051447;28;20041;-71
2022/11/13 01:54:55;;;;;;;32.10;21.92;;;5.60;99.90;;;;;;5059011;28;20068;-71
2022/11/13 01:57:21;;;;;;;27.38;20.85;;;5.70;99.90;;;;;;5050752;28;20056;-71
2022/11/13 01:59:51;;;;;;;24.77;19.63;;;5.70;99.90;;;;;;5060647;28;20056;-71
2022/11/13 02:02:17;;;;;;;;;;;5.60;99.90;;;;;;5069331;28;20073;-71
2022/11/13 02:04:43;;;;;;;23.35;17.70;;;5.60;99.90;;;;;;5056987;28;19920;-71
2022/11/13 02:07:13;;;;;;;21.50;18.05;;;5.50;99.90;;;;;;5050495;28;20080;-71
2022/11/13 02:09:41;;;;;;;24.73;18.73;;;5.40;99.90;;;;;;5063635;28;20049;-71
2022/11/13 02:12:10;;;;;;;19.55;16.20;;;5.40;99.90;;;;;;5037201;28;20171;-71
2022/11/13 02:14:42;;;;;;;20.42;16.40;;;5.20;99.90;;;;;;5066679;28;20493;-71
2022/11/13 02:17:11;;;;;;;19.75;15.82;;;5.20;99.90;;;;;;5051046;28;20041;-71
2022/11/13 02:19:40;;;;;;;23.13;18.57;;;5.10;99.90;;;;;;5052017;28;20053;-71
2022/11/13 02:22:27;;;;;;;22.60;18.67;;;5.10;99.90;;;;;;5055484;28;20041;-71
2022/11/13 02:24:55;;;;;;;23.30;17.63;;;5.00;99.90;;;;;;5063144;28;20045;-71
2022/11/13 02:27:31;;;;;;;20.15;15.52;;;4.90;99.90;;;;;;5054816;28;20041;-71
2022/11/13 02:29:57;;;;;;;18.80;14.93;;;4.80;99.90;;;;;;5056901;28;20494;-71
2022/11/13 02:32:22;;;;;;;18.30;15.57;;;4.80;99.90;;;;;;5055303;28;20056;-71
2022/11/13 02:34:48;;;;;;;22.08;16.42;;;4.90;99.90;;;;;;5049933;28;20053;-71
2022/11/13 02:37:14;;;;;;;24.38;18.80;;;4.90;99.90;;;;;;5053003;28;20124;-71
2022/11/13 02:39:39;;;;;;;27.67;20.15;;;5.00;99.90;;;;;;5047724;28;20128;-71
2022/11/13 02:42:05;;;;;;;26.65;21.35;;;5.00;99.90;;;;;;5046462;28;20053;-71
2022/11/13 02:44:31;;;;;;;28.83;22.27;;;5.10;99.90;;;;;;5055221;28;20049;-71
2022/11/13 02:46:56;;;;;;;29.45;24.08;;;5.10;99.90;;;;;;5058976;28;20103;-71
2022/11/13 02:49:22;;;;;;;34.70;26.00;;;5.40;99.90;;;;;;5043858;28;20045;-71
2022/11/13 02:51:47;;;;;;;31.80;24.70;;;5.40;99.90;;;;;;5042967;28;20070;-70
2022/11/13 02:54:13;;;;;;;36.83;26.35;;;5.50;99.90;;;;;;5058935;28;20056;-71
2022/11/13 02:56:39;;;;;;;34.78;25.05;;;5.50;99.90;;;;;;5054582;28;20155;-71
2022/11/13 02:59:04;;;;;;;35.83;26.05;;;5.60;99.90;;;;;;5008626;28;20050;-71
2022/11/13 03:01:30;;;;;;;32.35;24.58;;;5.70;99.90;;;;;;5009699;28;20129;-71
2022/11/13 03:03:56;;;;;;;35.60;24.42;;;5.70;99.90;;;;;;5065511;28;20038;-71
2022/11/13 03:06:21;;;;;;;35.15;26.17;;;5.70;99.90;;;;;;5028253;28;20053;-71
2022/11/13 03:08:47;;;;;;;31.95;24.40;;;5.70;99.90;;;;;;5056296;28;20092;-71
2022/11/13 03:11:13;;;;;;;34.30;24.92;;;5.70;99.90;;;;;;5057316;28;20121;-71
2022/11/13 03:13:40;;;;;;;33.78;23.63;;;5.80;99.90;;;;;;5032898;28;20050;-71
2022/11/13 03:16:14;;;;;;;30.15;23.23;;;5.80;99.90;;;;;;5065446;28;20088;-71
2022/11/13 03:18:40;;;;;;;30.95;23.63;;;5.70;99.90;;;;;;5055494;28;20045;-71
2022/11/13 03:21:11;;;;;;;30.58;21.98;;;5.70;99.90;;;;;;5044461;28;20111;-71
2022/11/13 03:23:38;;;;;;;29.75;22.25;;;5.70;99.90;;;;;;5048599;28;20055;-71
2022/11/13 03:26:12;;;;;;;26.45;21.75;;;5.60;99.90;;;;;;5035998;28;20073;-71
2022/11/13 03:28:38;;;;;;;26.50;21.45;;;5.50;99.90;;;;;;5047137;28;20126;-71
2022/11/13 03:31:04;;;;;;;28.77;21.08;;;5.30;99.90;;;;;;5082930;28;20045;-71
2022/11/13 03:33:30;;;;;;;28.88;21.63;;;5.30;99.90;;;;;;5053572;28;20059;-71
2022/11/13 03:35:56;;;;;;;24.02;19.35;;;5.30;99.90;;;;;;5049204;28;20083;-71
2022/11/13 03:38:22;;;;;;;24.75;20.65;;;5.30;99.90;;;;;;5046061;28;20049;-71
2022/11/13 03:40:48;;;;;;;24.50;20.33;;;5.20;99.90;;;;;;5042782;28;20054;-71
2022/11/13 03:43:14;;;;;;;26.67;19.83;;;5.20;99.90;;;;;;5083553;28;20052;-71
2022/11/13 03:45:40;;;;;;;26.15;19.40;;;5.10;99.90;;;;;;5040029;28;20111;-71
2022/11/13 03:48:06;;;;;;;24.52;19.48;;;5.10;99.90;;;;;;5051822;28;20378;-71
2022/11/13 03:50:32;;;;;;;21.73;17.25;;;5.10;99.90;;;;;;5051747;28;20540;-71
2022/11/13 03:52:57;;;;;;;25.15;18.20;;;5.00;99.90;;;;;;5052397;28;20049;-71
2022/11/13 03:55:23;;;;;;;21.38;17.88;;;5.00;99.90;;;;;;5050773;28;20056;-71
2022/11/13 03:57:49;;;;;;;21.58;16.40;;;4.80;99.90;;;;;;5049323;28;20183;-71
2022/11/13 04:00:15;;;;;;;19.50;15.48;;;4.80;99.90;;;;;;5049125;28;20080;-71
2022/11/13 04:02:40;;;;;;;16.10;13.40;;;4.70;99.90;;;;;;5048548;28;20037;-71
2022/11/13 04:05:07;;;;;;;14.88;13.30;;;4.70;99.90;;;;;;5044993;28;20045;-71
2022/11/13 04:07:33;;;;;;;16.17;14.27;;;4.70;99.90;;;;;;5049840;28;20049;-71
2022/11/13 04:09:58;;;;;;;16.08;13.35;;;4.60;99.90;;;;;;5051544;28;20072;-71
2022/11/13 04:12:24;;;;;;;15.95;13.30;;;4.50;99.90;;;;;;5031832;28;20042;-71
2022/11/13 04:14:49;;;;;;;16.17;13.55;;;4.30;99.90;;;;;;5051010;28;20075;-71
2022/11/13 04:17:15;;;;;;;15.73;11.77;;;4.30;99.90;;;;;;5049150;28;20064;-71
2022/11/13 04:19:41;;;;;;;17.00;13.13;;;4.20;99.90;;;;;;5084868;28;20563;-71
2022/11/13 04:22:06;;;;;;;16.08;13.75;;;4.00;99.90;;;;;;5048138;28;20391;-71
2022/11/13 04:24:32;;;;;;;16.02;14.05;;;4.00;99.90;;;;;;5052017;28;20049;-71
2022/11/13 04:26:58;;;;;;;16.23;13.48;;;4.00;99.90;;;;;;5048008;28;20045;-71
2022/11/13 04:29:23;;;;;;;17.10;14.50;;;4.00;99.90;;;;;;5057012;28;20045;-71
2022/11/13 04:31:49;;;;;;;18.15;14.15;;;4.10;99.90;;;;;;5051435;28;20109;-71
2022/11/13 04:34:15;;;;;;;17.15;14.95;;;4.20;99.90;;;;;;5091470;28;20060;-71
2022/11/13 04:36:40;;;;;;;16.02;14.15;;;4.30;99.90;;;;;;5058578;28;20049;-71
2022/11/13 04:39:06;;;;;;;15.70;12.52;;;4.20;99.90;;;;;;5061371;28;20045;-71
2022/11/13 04:44:16;;;;;;;13.68;10.63;;;4.20;99.90;;;;;;5067616;28;20045;-71
2022/11/13 04:46:42;;;;;;;12.85;11.25;;;4.00;99.90;;;;;;5054673;28;20390;-71
2022/11/13 04:49:07;;;;;;;18.30;12.80;;;3.90;99.90;;;;;;5053487;28;20045;-71
2022/11/13 04:51:33;;;;;;;17.13;12.50;;;3.80;99.90;;;;;;5050602;28;20049;-71
2022/11/13 04:53:59;;;;;;;15.13;12.48;;;3.70;99.90;;;;;;5062824;28;20091;-71
2022/11/13 04:56:24;;;;;;;13.70;11.73;;;3.80;99.90;;;;;;5085271;28;20087;-71
2022/11/13 04:58:50;;;;;;;15.68;12.90;;;3.70;99.90;;;;;;5052998;28;20048;-71
2022/11/13 05:01:16;;;;;;;17.65;14.05;;;3.70;99.90;;;;;;5048659;28;20061;-71
2022/11/13 05:03:41;;;;;;;16.80;12.98;;;3.80;99.90;;;;;;5085480;28;20509;-71
2022/11/13 05:06:09;;;;;;;15.70;12.68;;;3.80;99.90;;;;;;5054928;28;20132;-71
2022/11/13 05:08:34;;;;;;;14.98;11.35;;;3.90;99.90;;;;;;5037081;28;20043;-71
2022/11/13 05:11:01;;;;;;;15.25;12.52;;;3.90;99.90;;;;;;5048356;28;20069;-71
2022/11/13 05:13:30;;;;;;;15.57;12.55;;;3.90;99.90;;;;;;5047673;28;20497;-71
2022/11/13 05:16:07;;;;;;;16.53;12.73;;;3.90;99.90;;;;;;5045266;28;20053;-71
2022/11/13 05:18:35;;;;;;;18.20;13.05;;;3.90;99.90;;;;;;5038460;28;20109;-71
2022/11/13 05:21:01;;;;;;;17.40;14.43;;;3.90;99.90;;;;;;5044894;28;20054;-71
2022/11/13 05:23:27;;;;;;;18.17;14.30;;;3.90;99.90;;;;;;5045390;28;20128;-71
2022/11/13 05:25:59;;;;;;;18.02;14.90;;;3.90;99.90;;;;;;5047012;28;20041;-71
2022/11/13 05:28:25;;;;;;;15.90;12.15;;;3.90;99.90;;;;;;5036454;28;20060;-71
2022/11/13 05:30:51;;;;;;;12.70;11.05;;;3.80;99.90;;;;;;5046322;28;20304;-71
2022/11/13 05:33:16;;;;;;;15.02;12.50;;;3.80;99.90;;;;;;5045109;28;20045;-71
2022/11/13 05:35:42;;;;;;;11.02;9.90;;;3.90;99.90;;;;;;5047102;28;20053;-71
2022/11/13 05:38:08;;;;;;;12.38;9.82;;;3.90;99.90;;;;;;5044537;28;20075;-71
2022/11/13 05:40:33;;;;;;;10.45;9.35;;;3.80;99.90;;;;;;5042126;28;20077;-71
2022/11/13 05:42:59;;;;;;;13.38;11.18;;;3.60;99.90;;;;;;5044842;28;20041;-71
2022/11/13 05:45:25;;;;;;;15.02;13.07;;;3.60;99.90;;;;;;5045473;28;20053;-71
2022/11/13 05:47:50;;;;;;;12.55;11.23;;;3.70;99.90;;;;;;5047844;28;20142;-71
2022/11/13 05:50:16;;;;;;;14.07;12.05;;;3.80;99.90;;;;;;5046990;28;20136;-71
2022/11/13 05:52:42;;;;;;;14.45;12.63;;;3.70;99.90;;;;;;5046466;28;20099;-71
2022/11/13 05:55:08;;;;;;;20.90;15.82;;;3.70;99.90;;;;;;5047158;28;20060;-71
2022/11/13 05:57:33;;;;;;;18.40;15.48;;;3.80;99.90;;;;;;5026277;28;20052;-71
2022/11/13 05:59:59;;;;;;;14.68;13.13;;;3.90;99.90;;;;;;5042745;28;20502;-71
2022/11/13 06:02:25;;;;;;;14.35;11.70;;;3.90;99.90;;;;;;5027676;28;20717;-71
2022/11/13 06:04:50;;;;;;;18.48;13.40;;;3.80;99.90;;;;;;5043488;28;20052;-71
2022/11/13 06:07:16;;;;;;;18.58;13.93;;;3.70;99.90;;;;;;5044382;28;20034;-71
2022/11/13 06:09:41;;;;;;;19.60;13.52;;;3.60;99.90;;;;;;5043651;28;20109;-71
2022/11/13 06:12:07;;;;;;;19.48;13.60;;;3.60;99.90;;;;;;5043704;28;20044;-71
2022/11/13 06:14:33;;;;;;;16.83;13.40;;;3.60;99.90;;;;;;5044085;28;20049;-71
2022/11/13 06:16:58;;;;;;;16.15;13.15;;;3.50;99.90;;;;;;5042273;28;20118;-71
2022/11/13 06:19:24;;;;;;;13.48;12.00;;;3.40;99.90;;;;;;5053127;28;20041;-71
2022/11/13 06:21:50;;;;;;;15.18;12.30;;;3.40;99.90;;;;;;5050910;28;20453;-71
2022/11/13 06:24:15;;;;;;;15.10;12.68;;;3.50;99.90;;;;;;5054925;28;20053;-71
2022/11/13 06:26:41;;;;;;;13.23;11.82;;;3.50;99.90;;;;;;5044520;28;20117;-71
2022/11/13 06:29:10;;;;;;;13.30;11.60;;;3.60;99.90;;;;;;5088747;28;20041;-71
2022/11/13 06:31:36;;;;;;;13.23;11.32;;;3.70;99.90;;;;;;5042931;28;20076;-71
2022/11/13 06:34:03;;;;;;;12.10;10.90;;;3.70;99.90;;;;;;5052120;28;20152;-71
2022/11/13 06:36:35;;;;;;;13.27;11.25;;;3.60;99.90;;;;;;5046753;28;20277;-71
2022/11/13 06:39:01;;;;;;;11.95;10.00;;;3.60;99.90;;;;;;5042655;28;20041;-71
2022/11/13 06:41:30;;;;;;;12.82;11.40;;;3.50;99.90;;;;;;5048778;28;20112;-71
2022/11/13 06:43:57;;;;;;;11.95;10.65;;;3.50;99.90;;;;;;5053008;28;20049;-71
2022/11/13 06:46:25;;;;;;;11.93;10.57;;;3.50;99.90;;;;;;5055263;28;20059;-71
2022/11/13 06:48:51;;;;;;;14.30;12.77;;;3.60;99.90;;;;;;5042029;28;20073;-71
2022/11/13 06:51:19;;;;;;;14.75;12.35;;;3.60;99.90;;;;;;5042963;28;20101;-71
2022/11/13 06:53:46;;;;;;;14.30;12.80;;;3.60;99.90;;;;;;5050746;28;20087;-71
2022/11/13 06:56:12;;;;;;;16.80;13.65;;;3.60;99.90;;;;;;5061958;28;20067;-71
2022/11/13 06:58:38;;;;;;;19.85;16.38;;;3.70;99.90;;;;;;5062079;28;20083;-71
2022/11/13 07:01:09;;;;;;;19.67;15.77;;;3.80;99.90;;;;;;5047691;28;20050;-71
2022/11/13 07:03:35;;;;;;;18.77;15.65;;;3.80;99.90;;;;;;5043056;28;20088;-71
2022/11/13 07:06:03;;;;;;;19.27;15.75;;;3.90;99.90;;;;;;5049215;28;20037;-71
2022/11/13 07:08:29;;;;;;;18.77;15.45;;;3.90;99.90;;;;;;5060536;28;20052;-71
2022/11/13 07:10:56;;;;;;;17.13;14.32;;;4.00;99.90;;;;;;5057363;28;20049;-71
2022/11/13 07:13:23;;;;;;;19.75;15.77;;;4.00;99.90;;;;;;5059773;28;20177;-71
2022/11/13 07:15:49;;;;;;;18.48;14.93;;;3.90;99.90;;;;;;5048264;28;20053;-71
2022/11/13 07:18:14;;;;;;;20.85;15.57;;;4.00;99.90;;;;;;5085996;28;20116;-71
2022/11/13 07:20:40;;;;;;;19.65;16.13;;;4.10;99.90;;;;;;5057621;28;20103;-71
2022/11/13 07:23:06;;;;;;;19.23;15.35;;;4.10;99.90;;;;;;5062960;28;20504;-71
2022/11/13 07:25:32;;;;;;;21.33;16.17;;;4.10;99.90;;;;;;5043723;28;20449;-71
2022/11/13 07:27:58;;;;;;;20.80;16.10;;;4.10;99.90;;;;;;5047417;28;20482;-71
2022/11/13 07:30:23;;;;;;;17.83;15.15;;;4.10;99.90;;;;;;5027264;28;20049;-71
2022/11/13 07:32:49;;;;;;;20.13;16.00;;;4.10;99.90;;;;;;5053721;28;20080;-71
2022/11/13 07:35:15;;;;;;;18.90;15.52;;;4.10;99.90;;;;;;5046505;28;20468;-71
2022/11/13 07:37:42;;;;;;;24.15;17.25;;;4.10;99.90;;;;;;5045926;28;20092;-71
2022/11/13 07:40:09;;;;;;;19.50;15.43;;;4.10;99.90;;;;;;5045914;28;20409;-71
2022/11/13 07:42:35;;;;;;;17.33;15.52;;;4.10;99.90;;;;;;5045788;28;20073;-71
2022/11/13 07:45:00;;;;;;;19.35;15.55;;;4.10;99.90;;;;;;5076819;28;20066;-71
2022/11/13 07:47:27;;;;;;;20.80;15.95;;;4.10;99.90;;;;;;5045223;28;20080;-71
2022/11/13 07:49:52;;;;;;;21.80;17.40;;;4.10;99.90;;;;;;5045059;28;20099;-71
2022/11/13 07:52:18;;;;;;;21.38;14.98;;;4.10;99.90;;;;;;5046473;28;20042;-71
2022/11/13 07:54:44;;;;;;;18.65;15.70;;;4.10;99.90;;;;;;5045330;28;20045;-71
2022/11/13 07:57:09;;;;;;;23.52;16.75;;;4.20;99.90;;;;;;5051739;28;20104;-71
2022/11/13 07:59:35;;;;;;;22.17;19.77;;;4.20;99.90;;;;;;5064743;28;20057;-71
2022/11/13 08:02:01;;;;;;;28.33;22.05;;;4.30;99.90;;;;;;5055254;28;20067;-71
2022/11/13 08:04:27;;;;;;;25.73;21.17;;;4.20;99.90;;;;;;5064981;28;20080;-71
2022/11/13 08:06:52;;;;;;;24.60;19.23;;;4.40;99.90;;;;;;5052439;28;20092;-71
2022/11/13 08:09:19;;;;;;;27.80;20.38;;;4.40;99.90;;;;;;5065978;28;20044;-71
2022/11/13 08:11:45;;;;;;;27.02;20.50;;;4.40;99.90;;;;;;5060621;28;20354;-71
2022/11/13 08:14:11;;;;;;;25.33;20.38;;;4.50;99.90;;;;;;5046405;28;20041;-71
2022/11/13 08:16:37;;;;;;;24.17;19.60;;;4.50;99.90;;;;;;5045764;28;20050;-71
2022/11/13 08:19:03;;;;;;;29.52;22.27;;;4.60;99.90;;;;;;5046264;28;20041;-71
2022/11/13 08:21:29;;;;;;;27.77;23.00;;;4.70;99.90;;;;;;5058229;28;20050;-71
2022/11/13 08:23:54;;;;;;;31.25;24.30;;;4.70;99.90;;;;;;5056025;28;20175;-71
2022/11/13 08:26:20;;;;;;;32.38;23.17;;;4.80;99.90;;;;;;5061260;28;20041;-71
2022/11/13 08:28:46;;;;;;;30.02;22.55;;;4.80;99.90;;;;;;5046576;28;20089;-71
2022/11/13 08:31:14;;;;;;;31.92;23.77;;;4.90;99.90;;;;;;5051961;28;20049;-71
2022/11/13 08:33:41;;;;;;;32.88;24.00;;;5.00;99.90;;;;;;5050930;28;20076;-71
2022/11/13 08:36:07;;;;;;;32.05;23.88;;;5.10;99.90;;;;;;5054698;28;20119;-71
2022/11/13 08:38:33;;;;;;;28.05;22.27;;;5.20;99.90;;;;;;5052546;28;20477;-71
2022/11/13 08:41:00;;;;;;;27.95;22.50;;;5.20;99.90;;;;;;5088750;28;20055;-71
2022/11/13 08:43:26;;;;;;;33.13;23.85;;;5.30;99.90;;;;;;5045438;28;20068;-71
2022/11/13 08:45:52;;;;;;;29.17;23.02;;;5.40;99.90;;;;;;5054051;28;20052;-71
2022/11/13 08:48:18;;;;;;;26.83;22.80;;;5.50;99.90;;;;;;5051898;28;20060;-71
2022/11/13 08:50:44;;;;;;;29.20;22.40;;;5.60;99.90;;;;;;5054006;28;20071;-71
2022/11/13 08:53:10;;;;;;;25.48;21.55;;;5.70;99.90;;;;;;5052142;28;20037;-71
2022/11/13 08:55:36;;;;;;;31.90;24.13;;;5.70;99.90;;;;;;5053257;28;20049;-71
2022/11/13 08:58:03;;;;;;;32.90;27.27;;;5.70;99.90;;;;;;5053484;28;20042;-71
2022/11/13 09:00:30;;;;;;;28.67;22.92;;;5.80;99.90;;;;;;5044991;28;20049;-71
2022/11/13 09:02:57;;;;;;;25.58;21.17;;;5.90;99.90;;;;;;5053634;28;20106;-71
2022/11/13 09:05:24;;;;;;;26.58;21.70;;;6.00;99.90;;;;;;5055211;28;20524;-71
2022/11/13 09:07:50;;;;;;;26.45;21.25;;;6.10;99.90;;;;;;5055653;28;20079;-71
2022/11/13 09:10:17;;;;;;;25.83;22.38;;;6.10;99.90;;;;;;5056222;28;20072;-71
2022/11/13 09:12:43;;;;;;;26.13;20.90;;;6.20;99.90;;;;;;5056547;28;20405;-71
2022/11/13 09:15:10;;;;;;;27.08;22.23;;;6.20;99.90;;;;;;5056654;28;20083;-71
2022/11/13 09:17:35;;;;;;;25.75;21.40;;;6.30;99.90;;;;;;5042750;28;20061;-71
2022/11/13 09:20:02;;;;;;;25.88;20.60;;;6.40;99.90;;;;;;5042869;28;20045;-71
2022/11/13 09:22:28;;;;;;;24.65;20.08;;;6.50;99.90;;;;;;5045674;28;20053;-71
2022/11/13 09:24:53;;;;;;;23.98;20.00;;;6.50;99.90;;;;;;5049084;28;20049;-71
2022/11/13 09:27:20;;;;;;;22.52;19.65;;;6.50;99.90;;;;;;5040298;28;20053;-71
2022/11/13 09:29:46;;;;;;;23.85;19.40;;;6.60;99.90;;;;;;5048059;28;20062;-70
2022/11/13 09:32:11;;;;;;;26.25;20.15;;;6.60;99.90;;;;;;4990988;28;20073;-69
2022/11/13 09:34:37;;;;;;;27.00;21.27;;;6.70;99.90;;;;;;5050179;28;20065;-70
2022/11/13 09:37:03;;;;;;;22.85;19.80;;;6.80;99.90;;;;;;5025278;28;20049;-68
2022/11/13 09:39:29;;;;;;;25.70;20.52;;;6.90;99.90;;;;;;5023491;28;20139;-69
2022/11/13 09:42:16;;;;;;;25.70;20.25;;;7.00;99.90;;;;;;5052513;28;20065;-70
2022/11/13 09:45:06;;;;;;;25.40;19.73;;;7.00;99.90;;;;;;5055859;28;20046;-69
2022/11/13 09:47:47;;;;;;;22.42;18.83;;;7.10;99.90;;;;;;5056027;28;20091;-69
2022/11/13 09:50:22;;;;;;;25.63;21.27;;;7.20;99.90;;;;;;5054237;28;20070;-69
2022/11/13 09:52:48;;;;;;;22.35;18.83;;;7.20;99.90;;;;;;5048131;28;20546;-68
2022/11/13 09:55:20;;;;;;;22.33;18.35;;;7.30;99.90;;;;;;5016929;28;20160;-69
2022/11/13 09:57:50;;;;;;;23.05;19.60;;;7.40;99.90;;;;;;5022875;28;20042;-69
2022/11/13 10:00:18;;;;;;;23.60;18.60;;;7.40;99.90;;;;;;5018683;28;20044;-70
2022/11/13 10:03:13;;;;;;;25.90;20.50;;;7.40;99.90;;;;;;5021456;28;20522;-70
2022/11/13 10:05:55;;;;;;;23.42;18.65;;;7.50;99.90;;;;;;5055935;28;20077;-69
2022/11/13 10:08:30;;;;;;;21.92;19.50;;;7.50;99.90;;;;;;5056377;28;20042;-70
2022/11/13 10:11:30;;;;;;;24.63;21.40;;;7.50;99.90;;;;;;5055422;28;20139;-69
2022/11/13 10:14:20;;;;;;;25.20;20.88;;;7.50;99.90;;;;;;5055573;28;20080;-69
2022/11/13 10:16:54;;;;;;;30.52;24.58;;;7.60;99.90;;;;;;5022139;28;20054;-70
2022/11/13 10:19:33;;;;;;;23.65;20.70;;;7.60;99.90;;;;;;5021643;28;20041;-67
2022/11/13 10:22:11;;;;;;;22.35;19.13;;;7.70;99.90;;;;;;5055816;28;20054;-67
2022/11/13 10:24:44;;;;;;;21.65;19.35;;;7.80;99.90;;;;;;5055944;28;20052;-67
2022/11/13 10:27:12;;;;;;;22.50;16.92;;;7.90;99.90;;;;;;5025293;28;20053;-67
2022/11/13 10:29:38;;;;;;;21.08;17.95;;;8.20;99.90;;;;;;5056713;28;20056;-67
2022/11/13 10:32:16;;;;;;;23.10;19.05;;;8.20;99.90;;;;;;5055836;28;20090;-67
2022/11/13 10:34:46;;;;;;;30.60;21.90;;;8.40;99.90;;;;;;5039796;28;20049;-67
2022/11/13 10:37:33;;;;;;;26.77;21.17;;;8.60;99.90;;;;;;5046335;28;20081;-67
2022/11/13 10:39:58;;;;;;;19.42;16.25;;;8.70;99.90;;;;;;5061008;28;20056;-74
2022/11/13 10:42:38;;;;;;;17.30;14.45;;;8.80;99.90;;;;;;5030596;28;20045;-70
2022/11/13 10:45:12;;;;;;;18.48;15.57;;;8.90;99.90;;;;;;5046777;28;20072;-70
2022/11/13 10:47:46;;;;;;;19.00;15.10;;;9.00;99.90;;;;;;5039873;28;20049;-66
2022/11/13 10:50:23;;;;;;;17.02;14.30;;;9.20;99.90;;;;;;5036511;28;20056;-68
2022/11/13 10:52:51;;;;;;;16.75;14.77;;;9.30;99.90;;;;;;5066917;28;20053;-68
2022/11/13 10:55:38;;;;;;;16.00;14.27;;;9.30;99.90;;;;;;5072526;28;20079;-68
2022/11/13 10:58:16;;;;;;;16.27;14.52;;;9.40;99.90;;;;;;5030160;28;20105;-68
2022/11/13 11:00:47;;;;;;;17.48;13.90;;;9.50;99.90;;;;;;5066172;28;20059;-68
2022/11/13 11:03:21;;;;;;;15.05;13.45;;;9.60;99.90;;;;;;5032276;28;20529;-68
2022/11/13 11:06:01;;;;;;;15.80;13.57;;;9.60;99.90;;;;;;5063054;28;20089;-68
2022/11/13 11:08:34;;;;;;;16.10;13.65;;;9.70;99.90;;;;;;5052028;28;20052;-68
2022/11/13 11:14:14;;;;;;;17.40;14.05;;;9.90;99.90;;;;;;5030042;28;20076;-66
2022/11/13 11:16:40;;;;;;;17.50;12.80;;;10.00;99.90;;;;;;5042562;28;20073;-66
2022/11/13 11:19:13;;;;;;;15.95;13.25;;;10.00;99.90;;;;;;5060342;28;20063;-65
2022/11/13 11:21:41;;;;;;;14.43;12.93;;;10.10;99.90;;;;;;5045295;28;20106;-66
2022/11/13 11:24:20;;;;;;;17.33;13.32;;;10.20;99.90;;;;;;5068413;28;20048;-66
2022/11/13 11:26:53;;;;;;;14.70;12.95;;;10.30;99.90;;;;;;5052835;28;20120;-66
2022/11/13 11:29:33;;;;;;;15.48;13.50;;;10.40;99.90;;;;;;5061553;28;20090;-66
2022/11/13 11:32:22;;;;;;;;;;;10.40;99.90;;;;;;5032004;28;20049;-66
2022/11/13 11:34:52;;;;;;;15.27;13.63;;;10.40;99.90;;;;;;4996542;28;19943;-65
2022/11/13 11:37:19;;;;;;;;;;;10.50;99.90;;;;;;5070619;28;20041;-66
2022/11/13 11:39:54;;;;;;;16.92;13.98;;;10.60;99.90;;;;;;5054637;28;20015;-66
2022/11/13 11:42:23;;;;;;;15.38;13.30;;;10.60;99.90;;;;;;5046488;28;20235;-66
2022/11/13 11:45:00;;;;;;;14.05;12.55;;;10.70;99.90;;;;;;5054219;28;20041;-66
2022/11/13 11:47:26;;;;;;;16.05;13.32;;;10.80;99.90;;;;;;5032537;28;20498;-66
2022/11/13 11:49:53;;;;;;;14.40;12.65;;;10.80;99.90;;;;;;5054151;28;20037;-65
2022/11/13 11:52:35;;;;;;;17.67;14.90;;;11.00;99.90;;;;;;5021111;28;20101;-65
2022/11/13 11:55:11;;;;;;;16.80;14.55;;;11.10;99.90;;;;;;5059438;28;20057;-66
2022/11/13 11:58:26;;;;;;;15.13;13.10;;;11.10;99.90;;;;;;5046627;28;20068;-66
2022/11/13 12:01:03;;;;;;;14.13;12.70;;;11.10;99.90;;;;;;5030781;28;20171;-66
2022/11/13 12:03:53;;;;;;;14.20;12.77;;;11.10;99.90;;;;;;5042290;28;20063;-65
2022/11/13 12:06:37;;;;;;;15.27;12.80;;;11.20;99.90;;;;;;5060455;28;20084;-66
2022/11/13 12:09:28;;;;;;;16.98;13.88;;;11.20;99.90;;;;;;5062332;28;20055;-66
2022/11/13 12:12:19;;;;;;;14.70;12.95;;;11.20;99.90;;;;;;5046829;28;20053;-66
2022/11/13 12:15:07;;;;;;;14.23;12.73;;;11.20;99.90;;;;;;5035851;28;20815;-66
2022/11/13 12:17:35;;;;;;;15.07;13.48;;;11.20;99.90;;;;;;5065919;28;20052;-66
2022/11/13 12:20:16;;;;;;;14.25;12.85;;;11.20;99.90;;;;;;5043808;28;20088;-65
2022/11/13 12:22:42;;;;;;;15.75;13.98;;;11.20;99.90;;;;;;5043047;28;20076;-66
2022/11/13 12:25:22;;;;;;;21.67;15.40;;;11.20;99.90;;;;;;5039564;28;20076;-66
2022/11/13 12:28:05;;;;;;;13.77;12.38;;;11.30;99.90;;;;;;5033893;28;20064;-66
2022/11/13 12:30:36;;;;;;;15.93;13.32;;;11.30;99.90;;;;;;5052659;28;20068;-66
2022/11/13 12:33:22;;;;;;;15.00;13.35;;;11.20;99.90;;;;;;5040088;28;20143;-65
2022/11/13 12:35:51;;;;;;;13.80;12.32;;;11.30;99.90;;;;;;5039612;28;20058;-66
2022/11/13 12:38:31;;;;;;;13.60;12.10;;;11.30;99.90;;;;;;5035141;28;20052;-66
2022/11/13 12:41:09;;;;;;;13.35;12.05;;;11.30;99.90;;;;;;5072634;28;20049;-66
2022/11/13 12:43:43;;;;;;;13.15;11.73;;;11.30;99.90;;;;;;5043125;28;20052;-66
2022/11/13 12:46:11;;;;;;;13.85;12.40;;;11.30;99.90;;;;;;5046376;28;20050;-67
2022/11/13 12:48:45;;;;;;;13.27;11.48;;;11.40;99.90;;;;;;5072146;28;20089;-66
2022/11/13 12:51:16;;;;;;;14.15;11.48;;;11.40;99.90;;;;;;5061323;28;20049;-67